createdAt,value
2023-02-27T00:02:05.807Z,-0.58
2023-02-27T00:04:38.670Z,-0.61
2023-02-27T00:07:13.239Z,-0.65
2023-02-27T00:09:45.905Z,-0.62
2023-02-27T00:12:18.891Z,-0.65
2023-02-27T00:14:51.747Z,-0.65
2023-02-27T00:17:28.153Z,-0.65
2023-02-27T00:20:00.912Z,-0.67
2023-02-27T00:22:39.563Z,-0.67
2023-02-27T00:25:13.959Z,-0.66
2023-02-27T00:27:47.764Z,-0.67
2023-02-27T00:30:20.320Z,-0.69
2023-02-27T00:32:53.482Z,-0.68
2023-02-27T00:35:27.321Z,-0.68
2023-02-27T00:38:01.835Z,-0.71
2023-02-27T00:40:38.081Z,-0.71
2023-02-27T00:43:10.595Z,-0.68
2023-02-27T00:45:43.803Z,-0.65
2023-02-27T00:48:17.133Z,-0.65
2023-02-27T00:50:50.556Z,-0.64
2023-02-27T00:53:25.617Z,-0.66
2023-02-27T00:55:59.601Z,-0.67
2023-02-27T00:58:32.703Z,-0.68
2023-02-27T01:01:06.533Z,-0.73
2023-02-27T01:03:39.369Z,-0.69
2023-02-27T01:06:12.289Z,-0.68
2023-02-27T01:08:46.882Z,-0.74
2023-02-27T01:11:19.429Z,-0.67
2023-02-27T01:13:52.632Z,-0.68
2023-02-27T01:16:25.664Z,-0.66
2023-02-27T01:18:58.196Z,-0.69
2023-02-27T01:21:31.276Z,-0.68
2023-02-27T01:24:06.143Z,-0.69
2023-02-27T01:26:39.278Z,-0.68
2023-02-27T01:29:11.781Z,-0.93
2023-02-27T01:31:45.061Z,-0.72
2023-02-27T01:34:18.684Z,-0.71
2023-02-27T01:36:51.457Z,-0.86
2023-02-27T01:39:26.546Z,-0.79
2023-02-27T01:41:59.901Z,-0.85
2023-02-27T01:45:12.970Z,-0.78
2023-02-27T01:47:48.820Z,-0.81
2023-02-27T01:50:22.218Z,-0.81
2023-02-27T01:52:58.569Z,-0.83
2023-02-27T01:55:38.476Z,-0.88
2023-02-27T01:58:14.322Z,-0.90
2023-02-27T02:00:48.354Z,-0.86
2023-02-27T02:03:29.880Z,-0.90
2023-02-27T02:06:06.592Z,-0.94
2023-02-27T02:08:45.179Z,-0.97
2023-02-27T02:11:21.120Z,-1.09
2023-02-27T02:13:57.489Z,-1.11
2023-02-27T02:16:40.966Z,-1.13
2023-02-27T02:19:49.901Z,-1.21
2023-02-27T02:23:05.959Z,-1.26
2023-02-27T02:26:19.996Z,-1.29
2023-02-27T02:29:38.139Z,-1.33
2023-02-27T02:32:56.158Z,-1.30
2023-02-27T02:36:13.844Z,-1.26
2023-02-27T02:39:03.806Z,-1.21
2023-02-27T02:41:48.861Z,-1.22
2023-02-27T02:44:27.928Z,-1.18
2023-02-27T02:47:06.378Z,-1.19
2023-02-27T02:49:45.657Z,-1.14
2023-02-27T02:52:27.973Z,-1.10
2023-02-27T02:55:10.474Z,-1.10
2023-02-27T02:57:48.570Z,-1.12
2023-02-27T03:00:24.521Z,-1.14
2023-02-27T03:03:01.687Z,-1.23
2023-02-27T03:05:39.155Z,-1.21
2023-02-27T03:08:17.782Z,-1.18
2023-02-27T03:10:57.792Z,-1.14
2023-02-27T03:13:36.067Z,-1.11
2023-02-27T03:16:14.703Z,-1.09
2023-02-27T03:18:53.827Z,-1.09
2023-02-27T03:21:34.612Z,-1.11
2023-02-27T03:24:13.290Z,-1.08
2023-02-27T03:26:49.590Z,-1.10
2023-02-27T03:29:31.652Z,-1.15
2023-02-27T03:32:11.316Z,-1.10
2023-02-27T03:34:46.409Z,-1.16
2023-02-27T03:37:27.403Z,-1.14
2023-02-27T03:40:06.691Z,-1.21
2023-02-27T03:42:46.749Z,-1.18
2023-02-27T03:45:33.909Z,-1.23
2023-02-27T03:48:09.158Z,-1.40
2023-02-27T03:50:43.436Z,-1.32
2023-02-27T03:53:24.393Z,-1.34
2023-02-27T03:55:59.022Z,-1.37
2023-02-27T03:58:34.203Z,-1.35
2023-02-27T04:01:07.157Z,-1.36
2023-02-27T04:03:46.788Z,-1.37
2023-02-27T04:06:43.602Z,-1.41
2023-02-27T04:09:24.046Z,-1.41
2023-02-27T04:12:13.589Z,-1.37
2023-02-27T04:15:00.041Z,-1.35
2023-02-27T04:17:39.713Z,-1.38
2023-02-27T04:20:23.147Z,-1.35
2023-02-27T04:23:00.125Z,-1.44
2023-02-27T04:25:53.399Z,-1.40
2023-02-27T04:28:34.232Z,-1.35
2023-02-27T04:31:15.424Z,-1.35
2023-02-27T04:33:53.397Z,-1.35
2023-02-27T04:36:32.792Z,-1.37
2023-02-27T04:39:10.254Z,-1.36
2023-02-27T04:41:47.944Z,-1.39
2023-02-27T04:44:23.424Z,-1.34
2023-02-27T04:47:00.988Z,-1.31
2023-02-27T04:49:37.629Z,-1.30
2023-02-27T04:52:16.532Z,-1.44
2023-02-27T04:54:54.824Z,-1.26
2023-02-27T04:57:32.428Z,-1.23
2023-02-27T05:00:09.927Z,-1.23
2023-02-27T05:02:47.281Z,-1.22
2023-02-27T05:05:24.632Z,-1.29
2023-02-27T05:08:04.077Z,-1.19
2023-02-27T05:10:40.773Z,-1.21
2023-02-27T05:13:18.254Z,-1.16
2023-02-27T05:15:57.890Z,-1.12
2023-02-27T05:18:32.338Z,-1.13
2023-02-27T05:21:16.539Z,-1.10
2023-02-27T05:23:58.745Z,-1.13
2023-02-27T05:26:54.717Z,-1.17
2023-02-27T05:29:35.950Z,-1.04
2023-02-27T05:32:20.609Z,-1.01
2023-02-27T05:35:00.323Z,-1.10
2023-02-27T05:37:37.770Z,-1.00
2023-02-27T05:40:14.608Z,-1.02
2023-02-27T05:42:54.095Z,-0.99
2023-02-27T05:45:31.828Z,-1.00
2023-02-27T05:48:08.989Z,-1.02
2023-02-27T05:50:45.979Z,-1.05
2023-02-27T05:53:21.581Z,-1.06
2023-02-27T05:55:56.842Z,-1.06
2023-02-27T05:58:32.812Z,-1.17
2023-02-27T06:01:07.319Z,-1.22
2023-02-27T06:03:41.177Z,-1.10
2023-02-27T06:06:18.594Z,-1.10
2023-02-27T06:08:51.177Z,-1.12
2023-02-27T06:11:24.413Z,-1.16
2023-02-27T06:13:57.339Z,-1.12
2023-02-27T06:16:30.361Z,-1.15
2023-02-27T06:19:04.967Z,-1.11
2023-02-27T06:21:39.519Z,-1.10
2023-02-27T06:24:11.951Z,-1.10
2023-02-27T06:26:45.271Z,-1.11
2023-02-27T06:29:17.653Z,-1.09
2023-02-27T06:31:50.749Z,-1.05
2023-02-27T06:34:23.238Z,-1.01
2023-02-27T06:36:57.447Z,-0.96
2023-02-27T06:39:29.847Z,-0.93
2023-02-27T06:42:02.352Z,-0.89
2023-02-27T06:44:35.296Z,-1.14
2023-02-27T06:47:08.768Z,-0.88
2023-02-27T06:49:42.620Z,-0.85
2023-02-27T06:52:16.380Z,-0.76
2023-02-27T06:54:49.266Z,-0.67
2023-02-27T06:57:22.088Z,-0.63
2023-02-27T06:59:54.501Z,-0.55
2023-02-27T07:02:27.200Z,-0.52
2023-02-27T07:05:00.175Z,-0.51
2023-02-27T07:07:39.635Z,-0.49
2023-02-27T07:10:14.155Z,-0.49
2023-02-27T07:12:48.048Z,-0.47
2023-02-27T07:15:22.078Z,-0.46
2023-02-27T07:17:54.666Z,-0.47
2023-02-27T07:20:27.975Z,-0.47
2023-02-27T07:23:02.417Z,-0.44
2023-02-27T07:25:35.660Z,-0.40
2023-02-27T07:28:08.558Z,-0.36
2023-02-27T07:30:41.773Z,-0.34
2023-02-27T07:33:14.552Z,-0.33
2023-02-27T07:35:47.383Z,-0.35
2023-02-27T07:38:22.988Z,-0.29
2023-02-27T07:40:56.057Z,-0.20
2023-02-27T07:43:28.743Z,-0.17
2023-02-27T07:46:04.164Z,-0.12
2023-02-27T07:48:37.050Z,-0.07
2023-02-27T07:51:09.829Z,0.05
2023-02-27T07:53:44.424Z,0.10
2023-02-27T07:56:16.938Z,0.12
2023-02-27T07:58:49.683Z,0.09
2023-02-27T08:01:22.187Z,0.16
2023-02-27T08:03:56.885Z,0.10
2023-02-27T08:06:30.045Z,0.17
2023-02-27T08:09:07.449Z,0.20
2023-02-27T08:11:39.865Z,0.23
2023-02-27T08:14:13.044Z,0.30
2023-02-27T08:16:46.412Z,0.37
2023-02-27T08:19:19.338Z,0.41
2023-02-27T08:21:54.167Z,0.15
2023-02-27T08:24:28.827Z,0.43
2023-02-27T08:27:01.698Z,0.43
2023-02-27T08:29:44.768Z,0.34
2023-02-27T08:32:20.979Z,0.47
2023-02-27T08:35:00.590Z,0.48
2023-02-27T08:37:33.091Z,0.44
2023-02-27T08:40:11.335Z,0.45
2023-02-27T08:42:48.689Z,0.50
2023-02-27T08:45:21.471Z,0.54
2023-02-27T08:47:54.027Z,0.54
2023-02-27T08:50:26.804Z,0.51
2023-02-27T08:52:59.244Z,0.42
2023-02-27T08:55:33.777Z,0.38
2023-02-27T08:58:06.435Z,0.36
2023-02-27T09:00:39.405Z,0.26
2023-02-27T09:03:12.590Z,0.33
2023-02-27T09:05:45.769Z,0.34
2023-02-27T09:08:18.198Z,0.32
2023-02-27T09:10:56.710Z,0.34
2023-02-27T09:13:29.200Z,0.33
2023-02-27T09:16:02.254Z,0.31
2023-02-27T09:18:35.590Z,0.40
2023-02-27T09:21:08.040Z,0.43
2023-02-27T09:23:41.464Z,0.46
2023-02-27T09:26:17.239Z,0.45
2023-02-27T09:28:50.326Z,0.44
2023-02-27T09:31:23.170Z,0.43
2023-02-27T09:33:57.377Z,0.47
2023-02-27T09:36:30.502Z,0.53
2023-02-27T09:39:03.033Z,0.54
2023-02-27T09:41:48.392Z,0.53
2023-02-27T09:44:46.601Z,0.48
2023-02-27T09:47:25.179Z,0.35
2023-02-27T09:50:03.859Z,0.36
2023-02-27T09:52:37.741Z,0.38
2023-02-27T09:55:16.573Z,0.38
2023-02-27T09:57:56.992Z,0.38
2023-02-27T10:00:44.562Z,0.36
2023-02-27T10:03:49.913Z,0.34
2023-02-27T10:06:27.327Z,0.35
2023-02-27T10:09:13.871Z,0.34
2023-02-27T10:11:57.787Z,0.31
2023-02-27T10:14:40.173Z,0.32
2023-02-27T10:17:20.934Z,0.29
2023-02-27T10:19:55.415Z,0.26
2023-02-27T10:22:31.296Z,0.21
2023-02-27T10:25:18.099Z,0.18
2023-02-27T10:28:09.084Z,0.17
2023-02-27T10:30:47.718Z,0.24
2023-02-27T10:33:28.087Z,0.27
2023-02-27T10:36:03.101Z,0.32
2023-02-27T10:38:41.754Z,0.36
2023-02-27T10:41:17.454Z,0.39
2023-02-27T10:43:53.025Z,0.44
2023-02-27T10:46:35.894Z,0.30
2023-02-27T10:49:31.194Z,0.40
2023-02-27T10:52:11.048Z,0.53
2023-02-27T10:54:47.491Z,0.51
2023-02-27T10:57:37.418Z,0.47
2023-02-27T11:00:32.150Z,0.42
2023-02-27T11:03:24.684Z,0.41
2023-02-27T11:05:59.836Z,0.39
2023-02-27T11:08:34.666Z,0.37
2023-02-27T11:11:13.804Z,0.38
2023-02-27T11:13:51.656Z,0.32
2023-02-27T11:16:25.130Z,0.30
2023-02-27T11:18:59.384Z,0.33
2023-02-27T11:21:32.439Z,0.33
2023-02-27T11:24:20.780Z,0.31
2023-02-27T11:26:58.039Z,0.20
2023-02-27T11:29:31.921Z,0.36
2023-02-27T11:32:13.496Z,0.36
2023-02-27T11:34:51.867Z,0.39
2023-02-27T11:37:31.086Z,0.36
2023-02-27T11:40:16.257Z,0.38
2023-02-27T11:42:51.839Z,0.33
2023-02-27T11:46:05.089Z,0.36
2023-02-27T11:48:27.401Z,0.22
2023-02-27T11:51:21.029Z,0.28
2023-02-27T11:54:07.798Z,0.23
2023-02-27T11:56:44.256Z,0.38
2023-02-27T11:59:30.834Z,0.40
2023-02-27T12:02:10.990Z,0.38
2023-02-27T12:04:52.847Z,0.34
2023-02-27T12:07:35.262Z,0.39
2023-02-27T12:10:17.393Z,0.37
2023-02-27T12:12:53.283Z,0.42
2023-02-27T12:15:30.848Z,0.51
2023-02-27T12:18:16.204Z,0.54
2023-02-27T12:20:56.019Z,0.54
2023-02-27T12:23:37.400Z,0.54
2023-02-27T12:26:19.839Z,0.43
2023-02-27T12:29:02.259Z,0.39
2023-02-27T12:31:50.929Z,0.43
2023-02-27T12:34:28.537Z,0.30
2023-02-27T12:37:03.453Z,0.30
2023-02-27T12:39:39.423Z,0.23
2023-02-27T12:42:40.205Z,0.21
2023-02-27T12:45:34.177Z,0.16
2023-02-27T12:48:20.902Z,0.24
2023-02-27T12:51:04.642Z,0.22
2023-02-27T12:53:55.748Z,0.23
2023-02-27T12:56:41.519Z,0.25
2023-02-27T12:59:32.426Z,0.26
2023-02-27T13:02:22.469Z,0.26
2023-02-27T13:05:13.741Z,0.25
2023-02-27T13:08:00.338Z,0.23
2023-02-27T13:10:38.815Z,0.18
2023-02-27T13:13:22.650Z,0.16
2023-02-27T13:16:00.792Z,0.08
2023-02-27T13:18:41.829Z,0.04
2023-02-27T13:21:21.879Z,0.13
2023-02-27T13:24:06.750Z,0.12
2023-02-27T13:26:44.338Z,0.12
2023-02-27T13:29:22.014Z,0.14
2023-02-27T13:32:02.073Z,0.13
2023-02-27T13:34:39.782Z,0.15
2023-02-27T13:37:13.396Z,0.13
2023-02-27T13:39:59.603Z,0.11
2023-02-27T13:42:58.865Z,0.06
2023-02-27T13:45:57.334Z,0.03
2023-02-27T13:48:46.509Z,-0.03
2023-02-27T13:51:47.857Z,-0.01
2023-02-27T13:54:27.810Z,-0.04
2023-02-27T13:57:15.914Z,-0.05
2023-02-27T13:59:55.115Z,-0.12
2023-02-27T14:02:58.384Z,-0.09
2023-02-27T14:05:35.265Z,-0.09
2023-02-27T14:08:14.302Z,-0.16
2023-02-27T14:10:58.351Z,-0.15
2023-02-27T14:14:26.106Z,-0.17
2023-02-27T14:17:00.686Z,-0.33
2023-02-27T14:19:57.517Z,-0.27
2023-02-27T14:22:40.110Z,-0.28
2023-02-27T14:25:23.342Z,-0.27
2023-02-27T14:27:58.032Z,-0.32
2023-02-27T14:30:34.671Z,-0.39
2023-02-27T14:33:37.684Z,-0.41
2023-02-27T14:36:19.788Z,-0.39
2023-02-27T14:38:56.344Z,-0.35
2023-02-27T14:41:42.611Z,-0.37
2023-02-27T14:44:26.122Z,-0.40
2023-02-27T14:47:06.083Z,-0.39
2023-02-27T14:49:39.143Z,-0.41
2023-02-27T14:52:15.461Z,-0.45
2023-02-27T14:54:48.647Z,-0.58
2023-02-27T14:57:24.184Z,-0.49
2023-02-27T14:59:57.041Z,-0.54
2023-02-27T15:02:34.132Z,-0.52
2023-02-27T15:05:16.328Z,-0.54
2023-02-27T15:07:50.346Z,-0.54
2023-02-27T15:10:30.935Z,-0.58
2023-02-27T15:13:03.762Z,-0.64
2023-02-27T15:15:36.691Z,-0.62
2023-02-27T15:18:13.927Z,-0.56
2023-02-27T15:20:46.899Z,-0.56
2023-02-27T15:23:24.715Z,-0.58
2023-02-27T15:26:00.772Z,-0.60
2023-02-27T15:28:37.755Z,-0.58
2023-02-27T15:31:18.540Z,-0.72
2023-02-27T15:33:51.580Z,-0.65
2023-02-27T15:36:27.513Z,-0.68
2023-02-27T15:39:15.579Z,-0.67
2023-02-27T15:41:54.011Z,-0.67
2023-02-27T15:44:42.234Z,-0.65
2023-02-27T15:47:19.108Z,-0.65
2023-02-27T15:50:00.079Z,-0.63
2023-02-27T15:52:40.963Z,-0.64
2023-02-27T15:55:17.218Z,-0.66
2023-02-27T15:58:02.442Z,-0.63
2023-02-27T16:00:35.908Z,-0.58
2023-02-27T16:03:10.410Z,-0.55
2023-02-27T16:05:42.868Z,-0.57
2023-02-27T16:08:18.943Z,-0.56
2023-02-27T16:10:53.465Z,-0.57
2023-02-27T16:13:35.392Z,-0.59
2023-02-27T16:16:24.538Z,-0.57
2023-02-27T16:18:59.310Z,-0.67
2023-02-27T16:21:31.831Z,-0.65
2023-02-27T16:24:21.590Z,-0.63
2023-02-27T16:26:56.240Z,-0.68
2023-02-27T16:29:34.543Z,-0.67
2023-02-27T16:32:20.380Z,-0.69
2023-02-27T16:35:01.496Z,-0.67
2023-02-27T16:37:37.632Z,-0.65
2023-02-27T16:40:14.890Z,-0.61
2023-02-27T16:42:50.012Z,-0.60
2023-02-27T16:45:24.717Z,-0.61
2023-02-27T16:47:59.636Z,-0.64
2023-02-27T16:50:36.317Z,-0.63
2023-02-27T16:53:09.241Z,-0.65
2023-02-27T16:55:43.914Z,-0.65
2023-02-27T16:58:19.074Z,-0.68
2023-02-27T17:00:51.894Z,-0.71
2023-02-27T17:03:24.376Z,-0.73
2023-02-27T17:05:58.299Z,-0.85
2023-02-27T17:08:32.659Z,-0.82
2023-02-27T17:11:06.036Z,-0.85
2023-02-27T17:13:41.308Z,-0.87
2023-02-27T17:16:15.944Z,-0.88
2023-02-27T17:18:48.454Z,-0.91
2023-02-27T17:21:21.492Z,-0.93
2023-02-27T17:23:54.326Z,-0.92
2023-02-27T17:26:27.444Z,-0.92
2023-02-27T17:29:03.239Z,-0.95
2023-02-27T17:31:37.015Z,-0.95
2023-02-27T17:34:09.891Z,-0.90
2023-02-27T17:36:42.506Z,-0.89
2023-02-27T17:39:15.877Z,-0.99
2023-02-27T17:41:48.618Z,-0.90
2023-02-27T17:44:23.294Z,-0.93
2023-02-27T17:46:55.901Z,-0.92
2023-02-27T17:49:29.134Z,-0.89
2023-02-27T17:52:01.920Z,-0.91
2023-02-27T17:54:35.402Z,-0.98
2023-02-27T17:57:10.539Z,-0.96
2023-02-27T17:59:45.070Z,-0.99
2023-02-27T18:02:17.714Z,-0.99
2023-02-27T18:04:50.679Z,-0.98
2023-02-27T18:07:23.359Z,-0.94
2023-02-27T18:09:56.960Z,-0.91
2023-02-27T18:12:29.447Z,-0.89
2023-02-27T18:15:04.560Z,-0.97
2023-02-27T18:17:37.822Z,-1.20
2023-02-27T18:20:12.015Z,-1.00
2023-02-27T18:22:44.671Z,-1.01
2023-02-27T18:25:17.452Z,-0.91
2023-02-27T18:27:50.384Z,-0.93
2023-02-27T18:30:25.709Z,-0.97
2023-02-27T18:32:59.536Z,-1.02
2023-02-27T18:35:32.370Z,-1.07
2023-02-27T18:38:04.958Z,-1.13
2023-02-27T18:40:37.799Z,-1.32
2023-02-27T18:43:10.751Z,-1.27
2023-02-27T18:45:45.910Z,-1.31
2023-02-27T18:48:18.494Z,-1.41
2023-02-27T18:50:51.759Z,-1.35
2023-02-27T18:53:24.431Z,-1.40
2023-02-27T18:56:00.764Z,-1.43
2023-02-27T18:58:34.151Z,-1.57
2023-02-27T19:01:11.788Z,-1.61
2023-02-27T19:03:44.545Z,-1.57
2023-02-27T19:06:18.428Z,-1.67
2023-02-27T19:08:51.039Z,-1.63
2023-02-27T19:11:25.907Z,-1.59
2023-02-27T19:13:59.016Z,-1.57
2023-02-27T19:16:34.500Z,-1.56
2023-02-27T19:19:10.200Z,-1.50
2023-02-27T19:21:43.084Z,-1.48
2023-02-27T19:24:16.840Z,-1.49
2023-02-27T19:26:50.835Z,-1.52
2023-02-27T19:29:24.314Z,-1.46
2023-02-27T19:31:59.149Z,-1.50
2023-02-27T19:34:31.716Z,-1.46
2023-02-27T19:37:04.863Z,-1.54
2023-02-27T19:39:37.355Z,-1.45
2023-02-27T19:42:10.646Z,-1.41
2023-02-27T19:44:44.002Z,-1.48
2023-02-27T19:47:18.361Z,-1.41
2023-02-27T19:49:53.116Z,-1.40
2023-02-27T19:52:25.738Z,-1.43
2023-02-27T19:54:58.505Z,-1.47
2023-02-27T19:57:31.715Z,-1.51
2023-02-27T20:00:06.721Z,-1.57
2023-02-27T20:02:47.359Z,-1.56
2023-02-27T20:05:19.759Z,-1.57
2023-02-27T20:07:53.502Z,-1.62
2023-02-27T20:10:26.006Z,-1.59
2023-02-27T20:12:59.201Z,-1.59
2023-02-27T20:15:31.684Z,-1.65
2023-02-27T20:18:05.585Z,-1.71
2023-02-27T20:20:40.156Z,-1.85
2023-02-27T20:23:15.831Z,-1.93
2023-02-27T20:25:48.207Z,-2.02
2023-02-27T20:28:21.007Z,-2.00
2023-02-27T20:30:54.259Z,-2.04
2023-02-27T20:33:29.865Z,-2.04
2023-02-27T20:36:06.189Z,-2.00
2023-02-27T20:38:39.621Z,-1.98
2023-02-27T20:41:14.019Z,-2.00
2023-02-27T20:43:47.759Z,-1.99
2023-02-27T20:46:21.666Z,-1.95
2023-02-27T20:48:58.304Z,-1.94
2023-02-27T20:51:35.182Z,-1.93
2023-02-27T20:54:10.338Z,-1.96
2023-02-27T20:56:43.299Z,-1.95
2023-02-27T20:59:18.100Z,-2.05
2023-02-27T21:01:54.142Z,-2.02
2023-02-27T21:04:43.019Z,-2.01
2023-02-27T21:07:18.693Z,-1.97
2023-02-27T21:09:51.927Z,-1.95
2023-02-27T21:12:24.969Z,-1.89
2023-02-27T21:14:57.634Z,-1.86
2023-02-27T21:17:30.771Z,-1.90
2023-02-27T21:20:06.857Z,-1.84
2023-02-27T21:22:39.809Z,-1.81
2023-02-27T21:25:12.282Z,-1.92
2023-02-27T21:27:45.424Z,-1.83
2023-02-27T21:30:18.617Z,-1.87
2023-02-27T21:32:51.294Z,-1.84
2023-02-27T21:35:25.636Z,-1.83
2023-02-27T21:37:58.904Z,-1.84
2023-02-27T21:40:31.587Z,-1.87
2023-02-27T21:43:04.832Z,-1.90
2023-02-27T21:45:41.624Z,-1.97
2023-02-27T21:48:14.725Z,-1.91
2023-02-27T21:50:49.473Z,-1.92
2023-02-27T21:53:25.132Z,-1.95
2023-02-27T21:56:03.341Z,-1.90
2023-02-27T21:58:36.910Z,-1.94
2023-02-27T22:01:15.322Z,-1.93
2023-02-27T22:03:50.836Z,-1.93
2023-02-27T22:06:27.456Z,-1.94
2023-02-27T22:09:02.161Z,-1.95
2023-02-27T22:11:35.314Z,-1.93
2023-02-27T22:14:09.888Z,-1.91
2023-02-27T22:16:42.752Z,-1.94
2023-02-27T22:19:21.496Z,-1.92
2023-02-27T22:21:55.697Z,-1.90
2023-02-27T22:24:28.586Z,-1.88
2023-02-27T22:27:01.030Z,-1.87
2023-02-27T22:29:33.629Z,-1.88
2023-02-27T22:32:06.981Z,-1.90
2023-02-27T22:34:39.771Z,-1.93
2023-02-27T22:37:16.239Z,-2.03
2023-02-27T22:39:49.071Z,-2.01
2023-02-27T22:42:21.943Z,-2.05
2023-02-27T22:44:54.668Z,-2.08
2023-02-27T22:47:27.921Z,-2.10
2023-02-27T22:50:00.406Z,-2.10
2023-02-27T22:52:37.943Z,-2.08
2023-02-27T22:55:11.038Z,-2.08
2023-02-27T22:57:50.076Z,-2.11
2023-02-27T23:00:23.032Z,-2.09
2023-02-27T23:02:56.272Z,-2.14
2023-02-27T23:05:28.691Z,-2.09
2023-02-27T23:08:03.950Z,-2.13
2023-02-27T23:10:36.726Z,-2.11
2023-02-27T23:13:09.929Z,-2.14
2023-02-27T23:15:42.402Z,-2.21
2023-02-27T23:18:15.853Z,-2.21
2023-02-27T23:20:48.364Z,-2.24
2023-02-27T23:23:23.307Z,-2.18
2023-02-27T23:25:55.781Z,-2.17
2023-02-27T23:28:28.953Z,-2.16
2023-02-27T23:31:02.062Z,-2.16
2023-02-27T23:33:35.559Z,-2.23
2023-02-27T23:36:08.482Z,-2.18
2023-02-27T23:38:43.494Z,-2.18
2023-02-27T23:41:17.618Z,-2.19
2023-02-27T23:43:53.129Z,-2.16
2023-02-27T23:46:30.593Z,-2.17
2023-02-27T23:49:27.339Z,-2.21
2023-02-27T23:51:59.932Z,-2.23
2023-02-27T23:54:34.369Z,-2.20
2023-02-27T23:57:06.768Z,-2.24
2023-02-27T23:59:39.714Z,-2.24
